sensor_id;sensor_type;location;lat;lon;timestamp;P1;durP1;ratioP1;P2;durP2;ratioP2
2313;SDS011;42279;51.388;7.000;2023-01-31T00:00:30;12.07;;;3.15;;
2313;SDS011;42279;51.388;7.000;2023-01-31T00:02:56;15.77;;;5.18;;
2313;SDS011;42279;51.388;7.000;2023-01-31T00:05:29;17.73;;;6.80;;
2313;SDS011;42279;51.388;7.000;2023-01-31T00:07:55;17.38;;;4.65;;
2313;SDS011;42279;51.388;7.000;2023-01-31T00:10:21;15.02;;;4.05;;
2313;SDS011;42279;51.388;7.000;2023-01-31T00:12:47;12.55;;;4.35;;
2313;SDS011;42279;51.388;7.000;2023-01-31T00:15:14;8.47;;;4.07;;
2313;SDS011;42279;51.388;7.000;2023-01-31T00:17:42;12.52;;;4.75;;
2313;SDS011;42279;51.388;7.000;2023-01-31T00:20:08;9.87;;;3.60;;
2313;SDS011;42279;51.388;7.000;2023-01-31T00:22:34;14.10;;;3.58;;
2313;SDS011;42279;51.388;7.000;2023-01-31T00:25:00;22.73;;;5.07;;
2313;SDS011;42279;51.388;7.000;2023-01-31T00:27:26;12.63;;;3.65;;
2313;SDS011;42279;51.388;7.000;2023-01-31T00:29:52;13.90;;;3.60;;
2313;SDS011;42279;51.388;7.000;2023-01-31T00:32:18;14.00;;;4.87;;
2313;SDS011;42279;51.388;7.000;2023-01-31T00:34:44;17.48;;;3.63;;
2313;SDS011;42279;51.388;7.000;2023-01-31T00:37:10;13.07;;;4.07;;
2313;SDS011;42279;51.388;7.000;2023-01-31T00:39:36;18.38;;;4.38;;
2313;SDS011;42279;51.388;7.000;2023-01-31T00:42:02;11.50;;;3.93;;
2313;SDS011;42279;51.388;7.000;2023-01-31T00:44:28;16.80;;;4.00;;
2313;SDS011;42279;51.388;7.000;2023-01-31T00:46:54;14.60;;;3.73;;
2313;SDS011;42279;51.388;7.000;2023-01-31T00:49:20;12.47;;;4.63;;
2313;SDS011;42279;51.388;7.000;2023-01-31T00:51:46;11.43;;;4.20;;
2313;SDS011;42279;51.388;7.000;2023-01-31T00:54:12;12.47;;;3.40;;
2313;SDS011;42279;51.388;7.000;2023-01-31T00:56:38;13.13;;;3.70;;
2313;SDS011;42279;51.388;7.000;2023-01-31T00:59:04;11.77;;;3.50;;
2313;SDS011;42279;51.388;7.000;2023-01-31T01:01:33;7.30;;;3.28;;
2313;SDS011;42279;51.388;7.000;2023-01-31T01:03:59;11.40;;;4.60;;
2313;SDS011;42279;51.388;7.000;2023-01-31T01:06:25;11.38;;;4.22;;
2313;SDS011;42279;51.388;7.000;2023-01-31T01:08:52;18.45;;;4.68;;
2313;SDS011;42279;51.388;7.000;2023-01-31T01:13:44;10.27;;;4.23;;
2313;SDS011;42279;51.388;7.000;2023-01-31T01:16:12;10.75;;;3.83;;
2313;SDS011;42279;51.388;7.000;2023-01-31T01:18:38;12.32;;;3.95;;
2313;SDS011;42279;51.388;7.000;2023-01-31T01:21:27;10.77;;;3.25;;
2313;SDS011;42279;51.388;7.000;2023-01-31T01:23:51;16.10;;;3.65;;
2313;SDS011;42279;51.388;7.000;2023-01-31T01:26:19;9.70;;;4.20;;
2313;SDS011;42279;51.388;7.000;2023-01-31T01:28:45;2.47;;;2.20;;
2313;SDS011;42279;51.388;7.000;2023-01-31T01:31:12;14.38;;;3.65;;
2313;SDS011;42279;51.388;7.000;2023-01-31T01:33:40;12.18;;;2.80;;
2313;SDS011;42279;51.388;7.000;2023-01-31T01:36:07;17.45;;;4.20;;
2313;SDS011;42279;51.388;7.000;2023-01-31T01:38:36;14.85;;;4.03;;
2313;SDS011;42279;51.388;7.000;2023-01-31T01:41:03;5.32;;;2.90;;
2313;SDS011;42279;51.388;7.000;2023-01-31T01:43:42;5.25;;;2.80;;
2313;SDS011;42279;51.388;7.000;2023-01-31T01:46:10;21.58;;;4.38;;
2313;SDS011;42279;51.388;7.000;2023-01-31T01:48:36;8.38;;;3.58;;
2313;SDS011;42279;51.388;7.000;2023-01-31T01:51:03;16.75;;;3.50;;
2313;SDS011;42279;51.388;7.000;2023-01-31T01:53:29;11.23;;;3.17;;
2313;SDS011;42279;51.388;7.000;2023-01-31T01:56:03;9.38;;;4.13;;
2313;SDS011;42279;51.388;7.000;2023-01-31T01:58:32;22.90;;;4.40;;
2313;SDS011;42279;51.388;7.000;2023-01-31T02:01:02;10.07;;;4.00;;
2313;SDS011;42279;51.388;7.000;2023-01-31T02:03:29;14.57;;;3.75;;
2313;SDS011;42279;51.388;7.000;2023-01-31T02:05:58;9.88;;;2.75;;
2313;SDS011;42279;51.388;7.000;2023-01-31T02:08:26;10.48;;;3.50;;
2313;SDS011;42279;51.388;7.000;2023-01-31T02:13:29;10.25;;;4.68;;
2313;SDS011;42279;51.388;7.000;2023-01-31T02:15:56;12.48;;;4.95;;
2313;SDS011;42279;51.388;7.000;2023-01-31T02:18:22;17.63;;;4.18;;
2313;SDS011;42279;51.388;7.000;2023-01-31T02:29:02;8.73;;;2.92;;
2313;SDS011;42279;51.388;7.000;2023-01-31T02:31:39;9.93;;;2.92;;
2313;SDS011;42279;51.388;7.000;2023-01-31T02:34:13;7.18;;;3.92;;
2313;SDS011;42279;51.388;7.000;2023-01-31T02:36:50;6.85;;;3.30;;
2313;SDS011;42279;51.388;7.000;2023-01-31T02:39:30;12.60;;;3.53;;
2313;SDS011;42279;51.388;7.000;2023-01-31T02:47:15;12.50;;;3.05;;
2313;SDS011;42279;51.388;7.000;2023-01-31T02:49:56;10.95;;;3.47;;
2313;SDS011;42279;51.388;7.000;2023-01-31T02:57:43;15.48;;;3.50;;
2313;SDS011;42279;51.388;7.000;2023-01-31T03:00:10;18.48;;;4.25;;
2313;SDS011;42279;51.388;7.000;2023-01-31T03:02:36;11.07;;;3.00;;
2313;SDS011;42279;51.388;7.000;2023-01-31T03:05:02;10.50;;;4.30;;
2313;SDS011;42279;51.388;7.000;2023-01-31T03:07:32;18.63;;;3.78;;
2313;SDS011;42279;51.388;7.000;2023-01-31T03:12:45;14.85;;;3.60;;
2313;SDS011;42279;51.388;7.000;2023-01-31T03:23:22;13.02;;;3.22;;
2313;SDS011;42279;51.388;7.000;2023-01-31T03:25:50;8.95;;;3.70;;
2313;SDS011;42279;51.388;7.000;2023-01-31T03:28:19;19.73;;;3.97;;
2313;SDS011;42279;51.388;7.000;2023-01-31T03:33:31;10.30;;;3.33;;
2313;SDS011;42279;51.388;7.000;2023-01-31T03:36:01;4.78;;;2.97;;
2313;SDS011;42279;51.388;7.000;2023-01-31T03:38:30;10.43;;;3.20;;
2313;SDS011;42279;51.388;7.000;2023-01-31T03:41:09;13.50;;;3.33;;
2313;SDS011;42279;51.388;7.000;2023-01-31T03:43:36;15.00;;;3.35;;
2313;SDS011;42279;51.388;7.000;2023-01-31T03:46:08;9.40;;;3.25;;
2313;SDS011;42279;51.388;7.000;2023-01-31T03:48:37;16.38;;;3.45;;
2313;SDS011;42279;51.388;7.000;2023-01-31T03:51:05;11.00;;;2.92;;
2313;SDS011;42279;51.388;7.000;2023-01-31T03:56:10;8.82;;;2.97;;
2313;SDS011;42279;51.388;7.000;2023-01-31T03:58:40;12.52;;;4.32;;
2313;SDS011;42279;51.388;7.000;2023-01-31T04:01:07;8.18;;;2.55;;
2313;SDS011;42279;51.388;7.000;2023-01-31T04:06:20;12.25;;;4.03;;
2313;SDS011;42279;51.388;7.000;2023-01-31T04:08:46;12.43;;;3.60;;
2313;SDS011;42279;51.388;7.000;2023-01-31T04:11:12;14.65;;;5.80;;
2313;SDS011;42279;51.388;7.000;2023-01-31T04:13:39;8.15;;;3.60;;
2313;SDS011;42279;51.388;7.000;2023-01-31T04:16:05;10.95;;;4.05;;
2313;SDS011;42279;51.388;7.000;2023-01-31T04:18:32;17.80;;;4.85;;
2313;SDS011;42279;51.388;7.000;2023-01-31T04:20:57;10.97;;;5.07;;
2313;SDS011;42279;51.388;7.000;2023-01-31T04:23:23;15.33;;;5.67;;
2313;SDS011;42279;51.388;7.000;2023-01-31T04:25:51;10.02;;;4.30;;
2313;SDS011;42279;51.388;7.000;2023-01-31T04:28:20;10.37;;;4.83;;
2313;SDS011;42279;51.388;7.000;2023-01-31T04:30:50;10.77;;;4.95;;
2313;SDS011;42279;51.388;7.000;2023-01-31T04:33:16;16.25;;;6.40;;
2313;SDS011;42279;51.388;7.000;2023-01-31T04:35:45;11.15;;;5.32;;
2313;SDS011;42279;51.388;7.000;2023-01-31T04:38:10;17.93;;;6.03;;
2313;SDS011;42279;51.388;7.000;2023-01-31T04:40:37;14.17;;;6.80;;
2313;SDS011;42279;51.388;7.000;2023-01-31T04:43:03;11.90;;;5.40;;
2313;SDS011;42279;51.388;7.000;2023-01-31T04:45:29;10.60;;;4.73;;
2313;SDS011;42279;51.388;7.000;2023-01-31T04:47:55;16.15;;;5.70;;
2313;SDS011;42279;51.388;7.000;2023-01-31T04:50:21;17.07;;;6.53;;
2313;SDS011;42279;51.388;7.000;2023-01-31T04:52:50;15.20;;;5.23;;
2313;SDS011;42279;51.388;7.000;2023-01-31T04:55:17;10.18;;;6.38;;
2313;SDS011;42279;51.388;7.000;2023-01-31T04:57:44;9.48;;;5.35;;
2313;SDS011;42279;51.388;7.000;2023-01-31T05:00:12;26.00;;;6.17;;
2313;SDS011;42279;51.388;7.000;2023-01-31T05:02:38;13.93;;;5.40;;
2313;SDS011;42279;51.388;7.000;2023-01-31T05:05:04;16.38;;;5.18;;
2313;SDS011;42279;51.388;7.000;2023-01-31T05:07:31;9.98;;;5.55;;
2313;SDS011;42279;51.388;7.000;2023-01-31T05:09:57;18.50;;;5.57;;
2313;SDS011;42279;51.388;7.000;2023-01-31T05:12:24;15.35;;;6.00;;
2313;SDS011;42279;51.388;7.000;2023-01-31T05:15:05;14.70;;;5.90;;
2313;SDS011;42279;51.388;7.000;2023-01-31T05:17:35;9.05;;;6.25;;
2313;SDS011;42279;51.388;7.000;2023-01-31T05:20:03;7.63;;;4.43;;
2313;SDS011;42279;51.388;7.000;2023-01-31T05:22:30;11.50;;;5.38;;
2313;SDS011;42279;51.388;7.000;2023-01-31T05:24:56;12.20;;;6.95;;
2313;SDS011;42279;51.388;7.000;2023-01-31T05:27:27;10.70;;;6.75;;
2313;SDS011;42279;51.388;7.000;2023-01-31T05:29:53;11.85;;;5.90;;
2313;SDS011;42279;51.388;7.000;2023-01-31T05:32:19;11.47;;;6.27;;
2313;SDS011;42279;51.388;7.000;2023-01-31T05:34:45;11.30;;;6.40;;
2313;SDS011;42279;51.388;7.000;2023-01-31T05:37:12;21.08;;;7.63;;
2313;SDS011;42279;51.388;7.000;2023-01-31T05:39:38;14.70;;;6.57;;
2313;SDS011;42279;51.388;7.000;2023-01-31T05:42:04;12.50;;;5.47;;
2313;SDS011;42279;51.388;7.000;2023-01-31T05:44:30;15.45;;;5.95;;
2313;SDS011;42279;51.388;7.000;2023-01-31T05:46:58;16.60;;;6.60;;
2313;SDS011;42279;51.388;7.000;2023-01-31T05:49:24;10.68;;;4.88;;
2313;SDS011;42279;51.388;7.000;2023-01-31T05:51:57;19.83;;;7.15;;
2313;SDS011;42279;51.388;7.000;2023-01-31T05:54:23;8.93;;;6.90;;
2313;SDS011;42279;51.388;7.000;2023-01-31T05:56:49;12.27;;;7.23;;
2313;SDS011;42279;51.388;7.000;2023-01-31T05:59:15;22.63;;;7.85;;
2313;SDS011;42279;51.388;7.000;2023-01-31T06:01:41;24.13;;;8.07;;
2313;SDS011;42279;51.388;7.000;2023-01-31T06:04:08;17.50;;;6.60;;
2313;SDS011;42279;51.388;7.000;2023-01-31T06:06:34;15.65;;;7.70;;
2313;SDS011;42279;51.388;7.000;2023-01-31T06:09:12;16.83;;;7.63;;
2313;SDS011;42279;51.388;7.000;2023-01-31T06:11:48;9.68;;;6.20;;
2313;SDS011;42279;51.388;7.000;2023-01-31T06:14:14;12.75;;;6.30;;
2313;SDS011;42279;51.388;7.000;2023-01-31T06:16:46;28.02;;;8.45;;
2313;SDS011;42279;51.388;7.000;2023-01-31T06:19:18;18.17;;;7.43;;
2313;SDS011;42279;51.388;7.000;2023-01-31T06:21:50;15.93;;;7.68;;
2313;SDS011;42279;51.388;7.000;2023-01-31T06:24:16;18.10;;;7.10;;
2313;SDS011;42279;51.388;7.000;2023-01-31T06:26:42;22.30;;;7.90;;
2313;SDS011;42279;51.388;7.000;2023-01-31T06:29:09;12.70;;;5.37;;
2313;SDS011;42279;51.388;7.000;2023-01-31T06:31:35;15.25;;;7.78;;
2313;SDS011;42279;51.388;7.000;2023-01-31T06:34:01;16.13;;;6.40;;
2313;SDS011;42279;51.388;7.000;2023-01-31T06:36:27;26.27;;;8.68;;
2313;SDS011;42279;51.388;7.000;2023-01-31T06:39:00;20.67;;;6.45;;
2313;SDS011;42279;51.388;7.000;2023-01-31T06:41:28;12.15;;;6.43;;
2313;SDS011;42279;51.388;7.000;2023-01-31T06:43:54;15.15;;;7.68;;
2313;SDS011;42279;51.388;7.000;2023-01-31T06:46:22;13.70;;;7.30;;
2313;SDS011;42279;51.388;7.000;2023-01-31T06:48:49;15.40;;;7.88;;
2313;SDS011;42279;51.388;7.000;2023-01-31T06:51:17;21.23;;;8.52;;
2313;SDS011;42279;51.388;7.000;2023-01-31T06:53:43;17.73;;;8.52;;
2313;SDS011;42279;51.388;7.000;2023-01-31T06:56:09;17.80;;;7.00;;
2313;SDS011;42279;51.388;7.000;2023-01-31T06:58:35;18.95;;;7.10;;
2313;SDS011;42279;51.388;7.000;2023-01-31T07:01:04;21.03;;;7.10;;
2313;SDS011;42279;51.388;7.000;2023-01-31T07:03:31;8.82;;;5.55;;
2313;SDS011;42279;51.388;7.000;2023-01-31T07:05:58;20.20;;;8.50;;
2313;SDS011;42279;51.388;7.000;2023-01-31T07:08:24;21.35;;;8.30;;
2313;SDS011;42279;51.388;7.000;2023-01-31T07:10:50;13.73;;;5.60;;
2313;SDS011;42279;51.388;7.000;2023-01-31T07:13:16;12.82;;;6.63;;
2313;SDS011;42279;51.388;7.000;2023-01-31T07:15:44;12.38;;;6.30;;
2313;SDS011;42279;51.388;7.000;2023-01-31T07:18:10;22.85;;;8.48;;
2313;SDS011;42279;51.388;7.000;2023-01-31T07:20:36;15.20;;;6.45;;
2313;SDS011;42279;51.388;7.000;2023-01-31T07:23:03;21.35;;;9.10;;
2313;SDS011;42279;51.388;7.000;2023-01-31T07:25:29;16.77;;;8.07;;
2313;SDS011;42279;51.388;7.000;2023-01-31T07:27:58;15.18;;;6.10;;
2313;SDS011;42279;51.388;7.000;2023-01-31T07:30:24;26.10;;;6.82;;
2313;SDS011;42279;51.388;7.000;2023-01-31T07:32:50;16.67;;;6.83;;
2313;SDS011;42279;51.388;7.000;2023-01-31T07:35:16;15.73;;;7.10;;
2313;SDS011;42279;51.388;7.000;2023-01-31T07:37:43;11.70;;;6.20;;
2313;SDS011;42279;51.388;7.000;2023-01-31T07:40:10;17.58;;;6.25;;
2313;SDS011;42279;51.388;7.000;2023-01-31T07:42:36;16.15;;;7.70;;
2313;SDS011;42279;51.388;7.000;2023-01-31T07:45:03;12.20;;;6.15;;
2313;SDS011;42279;51.388;7.000;2023-01-31T07:47:29;13.77;;;5.70;;
2313;SDS011;42279;51.388;7.000;2023-01-31T07:49:55;11.00;;;5.72;;
2313;SDS011;42279;51.388;7.000;2023-01-31T07:52:21;20.00;;;6.13;;
2313;SDS011;42279;51.388;7.000;2023-01-31T07:54:50;8.05;;;4.30;;
2313;SDS011;42279;51.388;7.000;2023-01-31T07:57:21;8.05;;;5.28;;
2313;SDS011;42279;51.388;7.000;2023-01-31T07:59:54;7.28;;;3.50;;
2313;SDS011;42279;51.388;7.000;2023-01-31T08:02:20;7.50;;;4.05;;
2313;SDS011;42279;51.388;7.000;2023-01-31T08:05:04;12.18;;;6.30;;
2313;SDS011;42279;51.388;7.000;2023-01-31T08:07:31;13.23;;;6.10;;
2313;SDS011;42279;51.388;7.000;2023-01-31T08:09:57;5.20;;;4.70;;
2313;SDS011;42279;51.388;7.000;2023-01-31T08:12:28;15.23;;;5.60;;
2313;SDS011;42279;51.388;7.000;2023-01-31T08:14:54;9.70;;;4.30;;
2313;SDS011;42279;51.388;7.000;2023-01-31T08:17:20;14.83;;;4.53;;
2313;SDS011;42279;51.388;7.000;2023-01-31T08:19:46;5.80;;;3.50;;
2313;SDS011;42279;51.388;7.000;2023-01-31T08:22:14;8.80;;;4.00;;
2313;SDS011;42279;51.388;7.000;2023-01-31T08:24:41;12.90;;;5.10;;
2313;SDS011;42279;51.388;7.000;2023-01-31T08:27:07;15.27;;;4.53;;
2313;SDS011;42279;51.388;7.000;2023-01-31T08:29:33;15.30;;;5.97;;
2313;SDS011;42279;51.388;7.000;2023-01-31T08:31:59;9.77;;;5.03;;
2313;SDS011;42279;51.388;7.000;2023-01-31T08:34:27;11.98;;;5.05;;
2313;SDS011;42279;51.388;7.000;2023-01-31T08:36:53;7.13;;;4.20;;
2313;SDS011;42279;51.388;7.000;2023-01-31T08:39:26;6.90;;;5.43;;
2313;SDS011;42279;51.388;7.000;2023-01-31T08:41:52;14.87;;;2.80;;
2313;SDS011;42279;51.388;7.000;2023-01-31T08:44:22;15.37;;;5.70;;
2313;SDS011;42279;51.388;7.000;2023-01-31T08:46:48;15.33;;;5.20;;
2313;SDS011;42279;51.388;7.000;2023-01-31T08:49:14;13.40;;;5.63;;
2313;SDS011;42279;51.388;7.000;2023-01-31T08:51:40;10.70;;;5.10;;
2313;SDS011;42279;51.388;7.000;2023-01-31T08:54:07;16.83;;;5.80;;
2313;SDS011;42279;51.388;7.000;2023-01-31T08:56:34;4.37;;;3.97;;
2313;SDS011;42279;51.388;7.000;2023-01-31T08:59:00;7.03;;;4.10;;
2313;SDS011;42279;51.388;7.000;2023-01-31T09:01:26;6.15;;;3.03;;
2313;SDS011;42279;51.388;7.000;2023-01-31T09:03:52;13.93;;;5.80;;
2313;SDS011;42279;51.388;7.000;2023-01-31T09:06:21;14.50;;;4.53;;
2313;SDS011;42279;51.388;7.000;2023-01-31T09:08:48;6.97;;;4.93;;
2313;SDS011;42279;51.388;7.000;2023-01-31T09:11:14;12.53;;;3.63;;
2313;SDS011;42279;51.388;7.000;2023-01-31T09:13:42;12.98;;;4.25;;
2313;SDS011;42279;51.388;7.000;2023-01-31T09:16:09;10.53;;;3.97;;
2313;SDS011;42279;51.388;7.000;2023-01-31T09:18:37;5.73;;;3.63;;
2313;SDS011;42279;51.388;7.000;2023-01-31T09:21:04;14.35;;;4.20;;
2313;SDS011;42279;51.388;7.000;2023-01-31T09:23:30;21.15;;;4.60;;
2313;SDS011;42279;51.388;7.000;2023-01-31T09:25:56;11.82;;;4.25;;
2313;SDS011;42279;51.388;7.000;2023-01-31T09:28:22;11.53;;;4.63;;
2313;SDS011;42279;51.388;7.000;2023-01-31T09:30:49;5.18;;;3.95;;
2313;SDS011;42279;51.388;7.000;2023-01-31T09:33:17;11.67;;;4.73;;
2313;SDS011;42279;51.388;7.000;2023-01-31T09:35:43;5.82;;;3.67;;
2313;SDS011;42279;51.388;7.000;2023-01-31T09:38:19;9.02;;;3.35;;
2313;SDS011;42279;51.388;7.000;2023-01-31T09:40:48;13.05;;;4.07;;
2313;SDS011;42279;51.388;7.000;2023-01-31T09:43:14;4.75;;;3.30;;
2313;SDS011;42279;51.388;7.000;2023-01-31T09:45:41;10.50;;;4.23;;
2313;SDS011;42279;51.388;7.000;2023-01-31T09:48:11;5.07;;;2.25;;
2313;SDS011;42279;51.388;7.000;2023-01-31T09:50:41;8.45;;;3.92;;
2313;SDS011;42279;51.388;7.000;2023-01-31T09:53:17;7.80;;;2.85;;
2313;SDS011;42279;51.388;7.000;2023-01-31T10:01:11;10.73;;;4.20;;
2313;SDS011;42279;51.388;7.000;2023-01-31T10:06:21;8.00;;;2.58;;
2313;SDS011;42279;51.388;7.000;2023-01-31T10:08:53;11.80;;;4.17;;
2313;SDS011;42279;51.388;7.000;2023-01-31T10:11:30;6.03;;;3.45;;
2313;SDS011;42279;51.388;7.000;2023-01-31T10:14:00;5.07;;;3.20;;
2313;SDS011;42279;51.388;7.000;2023-01-31T10:16:31;7.83;;;3.13;;
2313;SDS011;42279;51.388;7.000;2023-01-31T10:19:00;8.25;;;4.30;;
2313;SDS011;42279;51.388;7.000;2023-01-31T10:21:31;13.43;;;3.70;;
2313;SDS011;42279;51.388;7.000;2023-01-31T10:24:04;9.30;;;3.92;;
2313;SDS011;42279;51.388;7.000;2023-01-31T10:26:35;4.27;;;2.27;;
2313;SDS011;42279;51.388;7.000;2023-01-31T10:29:03;8.90;;;3.60;;
2313;SDS011;42279;51.388;7.000;2023-01-31T10:31:33;6.85;;;4.30;;
2313;SDS011;42279;51.388;7.000;2023-01-31T10:34:04;8.68;;;4.82;;
2313;SDS011;42279;51.388;7.000;2023-01-31T10:36:51;5.57;;;2.93;;
2313;SDS011;42279;51.388;7.000;2023-01-31T10:44:14;10.40;;;4.90;;
2313;SDS011;42279;51.388;7.000;2023-01-31T10:46:42;21.23;;;7.13;;
2313;SDS011;42279;51.388;7.000;2023-01-31T10:49:09;7.03;;;3.67;;
2313;SDS011;42279;51.388;7.000;2023-01-31T10:54:17;5.60;;;5.05;;
2313;SDS011;42279;51.388;7.000;2023-01-31T10:56:46;7.70;;;3.72;;
2313;SDS011;42279;51.388;7.000;2023-01-31T10:59:16;7.37;;;4.60;;
2313;SDS011;42279;51.388;7.000;2023-01-31T11:01:44;7.70;;;4.28;;
2313;SDS011;42279;51.388;7.000;2023-01-31T11:04:27;9.27;;;5.07;;
2313;SDS011;42279;51.388;7.000;2023-01-31T11:06:54;6.47;;;4.80;;
2313;SDS011;42279;51.388;7.000;2023-01-31T11:09:26;2.92;;;2.83;;
2313;SDS011;42279;51.388;7.000;2023-01-31T11:11:55;9.45;;;4.80;;
2313;SDS011;42279;51.388;7.000;2023-01-31T11:14:22;10.45;;;4.57;;
2313;SDS011;42279;51.388;7.000;2023-01-31T11:16:48;4.88;;;4.40;;
2313;SDS011;42279;51.388;7.000;2023-01-31T11:21:50;2.47;;;2.37;;
2313;SDS011;42279;51.388;7.000;2023-01-31T11:24:23;4.15;;;3.53;;
2313;SDS011;42279;51.388;7.000;2023-01-31T11:26:54;8.07;;;3.80;;
2313;SDS011;42279;51.388;7.000;2023-01-31T11:29:31;13.57;;;4.70;;
2313;SDS011;42279;51.388;7.000;2023-01-31T11:31:59;10.15;;;4.78;;
2313;SDS011;42279;51.388;7.000;2023-01-31T11:34:27;14.60;;;5.10;;
2313;SDS011;42279;51.388;7.000;2023-01-31T11:37:01;15.20;;;5.65;;
2313;SDS011;42279;51.388;7.000;2023-01-31T11:39:29;9.83;;;4.27;;
2313;SDS011;42279;51.388;7.000;2023-01-31T11:41:56;6.70;;;5.15;;
2313;SDS011;42279;51.388;7.000;2023-01-31T11:44:22;10.05;;;5.90;;
2313;SDS011;42279;51.388;7.000;2023-01-31T11:51:47;7.38;;;5.72;;
2313;SDS011;42279;51.388;7.000;2023-01-31T11:54:16;9.82;;;5.90;;
2313;SDS011;42279;51.388;7.000;2023-01-31T11:56:43;8.70;;;4.95;;
2313;SDS011;42279;51.388;7.000;2023-01-31T11:59:10;9.50;;;6.00;;
2313;SDS011;42279;51.388;7.000;2023-01-31T12:01:45;6.25;;;5.15;;
2313;SDS011;42279;51.388;7.000;2023-01-31T12:04:14;7.55;;;5.28;;
2313;SDS011;42279;51.388;7.000;2023-01-31T12:06:41;6.90;;;5.57;;
2313;SDS011;42279;51.388;7.000;2023-01-31T12:09:20;7.43;;;4.80;;
2313;SDS011;42279;51.388;7.000;2023-01-31T12:14:16;11.17;;;5.80;;
2313;SDS011;42279;51.388;7.000;2023-01-31T12:16:43;6.10;;;5.27;;
2313;SDS011;42279;51.388;7.000;2023-01-31T12:26:49;19.73;;;12.07;;
2313;SDS011;42279;51.388;7.000;2023-01-31T12:32:08;9.70;;;5.70;;
2313;SDS011;42279;51.388;7.000;2023-01-31T12:34:44;5.57;;;4.90;;
2313;SDS011;42279;51.388;7.000;2023-01-31T12:37:28;15.40;;;5.57;;
2313;SDS011;42279;51.388;7.000;2023-01-31T12:45:43;7.60;;;5.80;;
2313;SDS011;42279;51.388;7.000;2023-01-31T12:48:17;9.33;;;5.40;;
2313;SDS011;42279;51.388;7.000;2023-01-31T12:56:19;12.73;;;6.50;;
2313;SDS011;42279;51.388;7.000;2023-01-31T13:01:23;12.43;;;7.63;;
2313;SDS011;42279;51.388;7.000;2023-01-31T13:06:29;11.10;;;7.10;;
2313;SDS011;42279;51.388;7.000;2023-01-31T13:09:01;15.23;;;6.60;;
2313;SDS011;42279;51.388;7.000;2023-01-31T13:11:36;7.40;;;6.93;;
2313;SDS011;42279;51.388;7.000;2023-01-31T13:14:03;18.67;;;8.43;;
2313;SDS011;42279;51.388;7.000;2023-01-31T13:18:58;11.97;;;8.10;;
2313;SDS011;42279;51.388;7.000;2023-01-31T13:21:27;18.93;;;8.83;;
2313;SDS011;42279;51.388;7.000;2023-01-31T13:23:54;9.03;;;6.03;;
2313;SDS011;42279;51.388;7.000;2023-01-31T13:26:34;18.93;;;9.00;;
2313;SDS011;42279;51.388;7.000;2023-01-31T13:29:11;15.83;;;10.47;;
2313;SDS011;42279;51.388;7.000;2023-01-31T13:31:41;14.83;;;8.60;;
2313;SDS011;42279;51.388;7.000;2023-01-31T13:34:11;12.43;;;9.23;;
2313;SDS011;42279;51.388;7.000;2023-01-31T13:36:43;11.85;;;7.35;;
2313;SDS011;42279;51.388;7.000;2023-01-31T13:39:23;15.23;;;12.40;;
2313;SDS011;42279;51.388;7.000;2023-01-31T13:41:50;7.53;;;6.17;;
2313;SDS011;42279;51.388;7.000;2023-01-31T13:44:16;9.60;;;5.93;;
2313;SDS011;42279;51.388;7.000;2023-01-31T13:46:49;18.57;;;10.80;;
2313;SDS011;42279;51.388;7.000;2023-01-31T13:49:20;23.40;;;11.27;;
2313;SDS011;42279;51.388;7.000;2023-01-31T13:51:49;14.43;;;10.23;;
2313;SDS011;42279;51.388;7.000;2023-01-31T13:56:48;14.60;;;6.63;;
2313;SDS011;42279;51.388;7.000;2023-01-31T13:59:16;13.60;;;10.37;;
2313;SDS011;42279;51.388;7.000;2023-01-31T14:01:47;9.20;;;8.40;;
2313;SDS011;42279;51.388;7.000;2023-01-31T14:09:35;10.60;;;9.60;;
2313;SDS011;42279;51.388;7.000;2023-01-31T14:14:43;14.07;;;12.40;;
2313;SDS011;42279;51.388;7.000;2023-01-31T14:22:20;11.37;;;8.80;;
2313;SDS011;42279;51.388;7.000;2023-01-31T14:27:23;10.95;;;9.13;;
2313;SDS011;42279;51.388;7.000;2023-01-31T14:35:32;12.55;;;8.68;;
2313;SDS011;42279;51.388;7.000;2023-01-31T14:38:10;15.63;;;12.23;;
2313;SDS011;42279;51.388;7.000;2023-01-31T14:43:31;16.48;;;11.25;;
2313;SDS011;42279;51.388;7.000;2023-01-31T14:53:41;15.90;;;11.73;;
2313;SDS011;42279;51.388;7.000;2023-01-31T14:58:52;14.17;;;12.50;;
2313;SDS011;42279;51.388;7.000;2023-01-31T15:01:19;18.53;;;11.63;;
2313;SDS011;42279;51.388;7.000;2023-01-31T15:06:27;18.10;;;12.63;;
2313;SDS011;42279;51.388;7.000;2023-01-31T15:11:56;16.23;;;11.93;;
2313;SDS011;42279;51.388;7.000;2023-01-31T15:16:56;15.80;;;11.33;;
2313;SDS011;42279;51.388;7.000;2023-01-31T15:19:22;17.35;;;14.05;;
2313;SDS011;42279;51.388;7.000;2023-01-31T15:24:17;17.50;;;10.87;;
2313;SDS011;42279;51.388;7.000;2023-01-31T15:26:44;20.30;;;14.33;;
2313;SDS011;42279;51.388;7.000;2023-01-31T15:29:18;19.77;;;15.60;;
2313;SDS011;42279;51.388;7.000;2023-01-31T15:31:44;19.00;;;13.60;;
2313;SDS011;42279;51.388;7.000;2023-01-31T15:34:18;18.57;;;14.90;;
2313;SDS011;42279;51.388;7.000;2023-01-31T15:36:55;25.98;;;17.98;;
2313;SDS011;42279;51.388;7.000;2023-01-31T15:39:25;19.97;;;13.97;;
2313;SDS011;42279;51.388;7.000;2023-01-31T15:41:53;19.23;;;12.30;;
2313;SDS011;42279;51.388;7.000;2023-01-31T15:44:20;22.77;;;18.57;;
2313;SDS011;42279;51.388;7.000;2023-01-31T15:46:48;21.50;;;14.23;;
2313;SDS011;42279;51.388;7.000;2023-01-31T15:49:40;27.37;;;17.27;;
2313;SDS011;42279;51.388;7.000;2023-01-31T15:54:33;16.00;;;12.20;;
2313;SDS011;42279;51.388;7.000;2023-01-31T15:57:02;23.20;;;17.97;;
2313;SDS011;42279;51.388;7.000;2023-01-31T15:59:32;26.93;;;19.03;;
2313;SDS011;42279;51.388;7.000;2023-01-31T16:01:59;26.67;;;20.90;;
2313;SDS011;42279;51.388;7.000;2023-01-31T16:04:28;23.30;;;18.67;;
2313;SDS011;42279;51.388;7.000;2023-01-31T16:06:54;29.58;;;20.88;;
2313;SDS011;42279;51.388;7.000;2023-01-31T16:09:25;27.07;;;20.27;;
2313;SDS011;42279;51.388;7.000;2023-01-31T16:11:52;29.00;;;20.83;;
2313;SDS011;42279;51.388;7.000;2023-01-31T16:14:18;31.13;;;21.80;;
2313;SDS011;42279;51.388;7.000;2023-01-31T16:16:46;28.77;;;18.80;;
2313;SDS011;42279;51.388;7.000;2023-01-31T16:19:17;22.37;;;14.90;;
2313;SDS011;42279;51.388;7.000;2023-01-31T16:21:46;31.73;;;19.80;;
2313;SDS011;42279;51.388;7.000;2023-01-31T16:24:16;30.77;;;21.57;;
2313;SDS011;42279;51.388;7.000;2023-01-31T16:32:03;24.38;;;17.45;;
2313;SDS011;42279;51.388;7.000;2023-01-31T16:34:39;36.33;;;21.17;;
2313;SDS011;42279;51.388;7.000;2023-01-31T16:37:06;27.13;;;16.83;;
2313;SDS011;42279;51.388;7.000;2023-01-31T16:39:40;24.37;;;17.80;;
2313;SDS011;42279;51.388;7.000;2023-01-31T16:44:46;23.17;;;17.20;;
2313;SDS011;42279;51.388;7.000;2023-01-31T16:52:48;17.50;;;15.43;;
2313;SDS011;42279;51.388;7.000;2023-01-31T16:57:49;22.90;;;15.57;;
2313;SDS011;42279;51.388;7.000;2023-01-31T17:02:52;22.20;;;17.20;;
2313;SDS011;42279;51.388;7.000;2023-01-31T17:05:22;19.03;;;15.00;;
2313;SDS011;42279;51.388;7.000;2023-01-31T17:07:49;28.17;;;15.25;;
2313;SDS011;42279;51.388;7.000;2023-01-31T17:10:18;23.37;;;15.50;;
2313;SDS011;42279;51.388;7.000;2023-01-31T17:12:46;22.20;;;12.90;;
2313;SDS011;42279;51.388;7.000;2023-01-31T17:15:13;25.33;;;14.60;;
2313;SDS011;42279;51.388;7.000;2023-01-31T17:17:40;26.03;;;15.57;;
2313;SDS011;42279;51.388;7.000;2023-01-31T17:20:06;36.33;;;14.40;;
2313;SDS011;42279;51.388;7.000;2023-01-31T17:22:32;16.10;;;12.00;;
2313;SDS011;42279;51.388;7.000;2023-01-31T17:24:58;18.80;;;12.13;;
2313;SDS011;42279;51.388;7.000;2023-01-31T17:27:24;24.13;;;14.30;;
2313;SDS011;42279;51.388;7.000;2023-01-31T17:29:50;19.50;;;12.97;;
2313;SDS011;42279;51.388;7.000;2023-01-31T17:32:18;17.27;;;12.83;;
2313;SDS011;42279;51.388;7.000;2023-01-31T17:34:44;20.20;;;13.87;;
2313;SDS011;42279;51.388;7.000;2023-01-31T17:37:12;17.70;;;11.90;;
2313;SDS011;42279;51.388;7.000;2023-01-31T17:39:38;18.00;;;14.00;;
2313;SDS011;42279;51.388;7.000;2023-01-31T17:42:04;17.50;;;11.90;;